createdAt,value
2023-05-23T00:00:26.606Z,8.3813
2023-05-23T00:01:29.639Z,8.3956
2023-05-23T00:02:32.624Z,8.7511
2023-05-23T00:03:35.541Z,9.3879
2023-05-23T00:04:38.425Z,8.8636
2023-05-23T00:05:41.675Z,8.8995
2023-05-23T00:06:44.326Z,9.2983
2023-05-23T00:07:47.260Z,8.5266
2023-05-23T00:08:50.188Z,8.6214
2023-05-23T00:09:53.209Z,9.1663
2023-05-23T00:10:56.092Z,8.7929
2023-05-23T00:11:59.038Z,8.8957
2023-05-23T00:13:01.985Z,9.2767
2023-05-23T00:14:04.921Z,8.6454
2023-05-23T00:15:07.874Z,8.5911
2023-05-23T00:16:10.836Z,8.2260
2023-05-23T00:17:13.933Z,8.3876
2023-05-23T00:18:16.728Z,8.4569
2023-05-23T00:19:19.746Z,8.2892
2023-05-23T00:20:22.618Z,8.5859
2023-05-23T00:21:25.559Z,8.7105
2023-05-23T00:22:28.518Z,8.8653
2023-05-23T00:23:31.451Z,8.3128
2023-05-23T00:24:34.409Z,8.7775
2023-05-23T00:25:37.465Z,8.4420
2023-05-23T00:26:40.319Z,8.8793
2023-05-23T00:27:43.251Z,8.4931
2023-05-23T00:28:46.193Z,8.2311
2023-05-23T00:29:49.139Z,8.5274
2023-05-23T00:30:52.130Z,8.1771
2023-05-23T00:31:55.033Z,8.7741
2023-05-23T00:32:58.175Z,8.6699
2023-05-23T00:34:00.939Z,8.5689
2023-05-23T00:35:03.896Z,8.1305
2023-05-23T00:36:06.837Z,8.3468
2023-05-23T00:37:09.783Z,7.7384
2023-05-23T00:38:12.736Z,7.9136
2023-05-23T00:39:15.709Z,8.3238
2023-05-23T00:40:18.654Z,8.1879
2023-05-23T00:41:21.666Z,8.0642
2023-05-23T00:42:24.560Z,8.5530
2023-05-23T00:43:27.471Z,8.4577
2023-05-23T00:44:30.443Z,8.3975
2023-05-23T00:45:33.395Z,8.2682
2023-05-23T00:46:36.400Z,7.6340
2023-05-23T00:47:39.294Z,8.8411
2023-05-23T00:48:42.304Z,8.2637
2023-05-23T00:49:45.181Z,8.1706
2023-05-23T00:50:48.103Z,8.0707
2023-05-23T00:51:51.080Z,7.8344
2023-05-23T00:52:54.017Z,8.3789
2023-05-23T00:53:56.940Z,7.6742
2023-05-23T00:54:59.876Z,7.6638
2023-05-23T00:56:02.826Z,7.8805
2023-05-23T00:57:05.772Z,8.1641
2023-05-23T00:58:08.724Z,7.9215
2023-05-23T00:59:11.670Z,7.9006
2023-05-23T01:00:14.611Z,7.7203
2023-05-23T01:01:17.685Z,8.5037
2023-05-23T01:02:20.535Z,7.9755
2023-05-23T01:03:23.589Z,7.9150
2023-05-23T01:04:26.880Z,8.3073
2023-05-23T01:05:29.345Z,8.5523
2023-05-23T01:06:32.271Z,8.1732
2023-05-23T01:07:35.226Z,7.8927
2023-05-23T01:08:38.168Z,8.0738
2023-05-23T01:09:41.144Z,7.7140
2023-05-23T01:10:44.080Z,7.4053
2023-05-23T01:11:47.049Z,7.8316
2023-05-23T01:12:49.981Z,7.8179
2023-05-23T01:13:52.901Z,7.6892
2023-05-23T01:14:55.847Z,7.7012
2023-05-23T01:16:01.913Z,7.9372
2023-05-23T01:17:01.725Z,7.6433
2023-05-23T01:18:04.793Z,7.8249
2023-05-23T01:19:07.731Z,7.2102
2023-05-23T01:20:10.715Z,8.4208
2023-05-23T01:21:13.521Z,8.0945
2023-05-23T01:22:16.451Z,8.2348
2023-05-23T01:23:19.401Z,8.1762
2023-05-23T01:24:22.423Z,8.3135
2023-05-23T01:25:25.291Z,8.9978
2023-05-23T01:26:28.276Z,8.8068
2023-05-23T01:27:31.229Z,8.7186
2023-05-23T01:28:34.155Z,9.4576
2023-05-23T01:29:37.108Z,8.9475
2023-05-23T01:30:40.086Z,8.9342
2023-05-23T01:31:43.060Z,8.7058
2023-05-23T01:32:46.008Z,9.1176
2023-05-23T01:33:48.923Z,8.5928
2023-05-23T01:34:51.899Z,8.5347
2023-05-23T01:35:54.929Z,8.9420
2023-05-23T01:36:57.788Z,8.5357
2023-05-23T01:38:00.738Z,9.1486
2023-05-23T01:39:03.709Z,8.5990
2023-05-23T01:40:06.651Z,9.2279
2023-05-23T01:41:09.619Z,8.9976
2023-05-23T01:42:12.554Z,9.1321
2023-05-23T01:43:15.524Z,9.1082
2023-05-23T01:44:19.745Z,8.8674
2023-05-23T01:45:21.408Z,8.8348
2023-05-23T01:46:24.431Z,9.3127
2023-05-23T01:47:27.486Z,9.2330
2023-05-23T01:48:30.324Z,9.0450
2023-05-23T01:49:33.213Z,8.9883
2023-05-23T01:50:36.148Z,9.0759
2023-05-23T01:51:39.194Z,9.7326
2023-05-23T01:52:42.068Z,8.7410
2023-05-23T01:53:45.044Z,8.7489
2023-05-23T01:54:48.020Z,8.7048
2023-05-23T01:55:50.954Z,9.0378
2023-05-23T01:56:53.879Z,9.0030
2023-05-23T01:57:56.836Z,9.0868
2023-05-23T01:58:59.768Z,8.8693
2023-05-23T02:00:02.715Z,8.8178
2023-05-23T02:01:05.713Z,9.0514
2023-05-23T02:02:08.685Z,8.7651
2023-05-23T02:03:11.687Z,9.1872
2023-05-23T02:04:14.529Z,8.9350
2023-05-23T02:05:17.487Z,9.2740
2023-05-23T02:06:20.444Z,8.9161
2023-05-23T02:07:23.578Z,9.1432
2023-05-23T02:08:26.338Z,9.2007
2023-05-23T02:09:29.288Z,9.3443
2023-05-23T02:10:32.258Z,9.3739
2023-05-23T02:11:35.184Z,8.8669
2023-05-23T02:12:38.234Z,8.7520
2023-05-23T02:13:41.129Z,8.7781
2023-05-23T02:14:44.045Z,9.0635
2023-05-23T02:15:46.987Z,8.2907
2023-05-23T02:16:49.983Z,8.7639
2023-05-23T02:17:52.903Z,8.2995
2023-05-23T02:18:55.872Z,8.5148
2023-05-23T02:19:58.767Z,8.7928
2023-05-23T02:21:01.729Z,8.9019
2023-05-23T02:22:04.674Z,8.8600
2023-05-23T02:23:07.716Z,9.3525
2023-05-23T02:24:10.573Z,9.2536
2023-05-23T02:25:13.617Z,8.8569
2023-05-23T02:26:16.452Z,8.4437
2023-05-23T02:27:19.404Z,8.5133
2023-05-23T02:28:22.338Z,8.5852
2023-05-23T02:29:25.331Z,8.4837
2023-05-23T02:30:28.212Z,8.8812
2023-05-23T02:31:31.356Z,8.5881
2023-05-23T02:32:34.150Z,8.5312
2023-05-23T02:33:37.107Z,8.6733
2023-05-23T02:34:40.042Z,8.4085
2023-05-23T02:35:43.058Z,9.0832
2023-05-23T02:36:45.888Z,8.8094
2023-05-23T02:37:48.890Z,8.8906
2023-05-23T02:38:51.885Z,8.7568
2023-05-23T02:39:54.760Z,8.4282
2023-05-23T02:40:57.690Z,8.0590
2023-05-23T02:42:00.626Z,8.4516
2023-05-23T02:43:03.594Z,8.4291
2023-05-23T02:44:06.572Z,8.6703
2023-05-23T02:45:09.504Z,8.2560
2023-05-23T02:46:12.457Z,9.0212
2023-05-23T02:47:15.353Z,8.5526
2023-05-23T02:48:18.322Z,8.1755
2023-05-23T02:49:21.241Z,8.8885
2023-05-23T02:50:24.224Z,8.5743
2023-05-23T02:51:27.183Z,8.2981
2023-05-23T02:52:30.109Z,9.0829
2023-05-23T02:53:33.120Z,8.9900
2023-05-23T02:54:36.144Z,8.8022
2023-05-23T02:55:39.471Z,8.6591
2023-05-23T02:56:41.941Z,9.0284
2023-05-23T02:57:44.962Z,8.1517
2023-05-23T02:58:47.876Z,8.6437
2023-05-23T02:59:50.853Z,8.8187
2023-05-23T03:00:53.753Z,8.7731
2023-05-23T03:01:56.753Z,8.9318
2023-05-23T03:02:59.818Z,8.7618
2023-05-23T03:04:02.659Z,8.5449
2023-05-23T03:05:05.513Z,9.0209
2023-05-23T03:06:08.498Z,9.1548
2023-05-23T03:07:20.417Z,9.2293
2023-05-23T03:08:14.325Z,9.1194
2023-05-23T03:09:17.334Z,9.9119
2023-05-23T03:10:20.369Z,9.7068
2023-05-23T03:11:23.198Z,9.4305
2023-05-23T03:12:26.123Z,9.3898
2023-05-23T03:13:29.056Z,9.1398
2023-05-23T03:14:32.007Z,9.6063
2023-05-23T03:15:34.954Z,9.6571
2023-05-23T03:16:37.960Z,10.3143
2023-05-23T03:17:40.865Z,9.8002
2023-05-23T03:18:43.801Z,10.7502
2023-05-23T03:19:46.731Z,10.3361
2023-05-23T03:20:49.727Z,10.5232
2023-05-23T03:21:52.625Z,10.1253
2023-05-23T03:22:55.590Z,10.3256
2023-05-23T03:23:58.575Z,10.5521
2023-05-23T03:25:01.472Z,11.1834
2023-05-23T03:26:04.512Z,10.8297
2023-05-23T03:27:07.468Z,11.3515
2023-05-23T03:28:10.354Z,11.0961
2023-05-23T03:29:13.249Z,10.8999
2023-05-23T03:30:16.245Z,11.2546
2023-05-23T03:31:19.218Z,10.7685
2023-05-23T03:32:22.144Z,11.2574
2023-05-23T03:33:25.038Z,11.1343
2023-05-23T03:34:28.004Z,11.2376
2023-05-23T03:35:30.992Z,11.7731
2023-05-23T03:36:33.893Z,11.7036
2023-05-23T03:37:36.833Z,11.5270
2023-05-23T03:38:39.781Z,11.4793
2023-05-23T03:39:42.725Z,10.8346
2023-05-23T03:40:45.682Z,11.6738
2023-05-23T03:41:48.731Z,11.4116
2023-05-23T03:42:51.579Z,11.3734
2023-05-23T03:43:54.527Z,18.3131
2023-05-23T03:44:57.468Z,18.2409
2023-05-23T03:46:00.523Z,114.2486
2023-05-23T03:47:03.412Z,53.9236
2023-05-23T03:48:06.363Z,15.3980
2023-05-23T03:49:09.299Z,11.5890
2023-05-23T03:50:12.215Z,10.7940
2023-05-23T03:51:15.200Z,10.1771
2023-05-23T03:52:18.139Z,9.7056
2023-05-23T03:53:21.060Z,9.6201
2023-05-23T03:54:23.998Z,9.2095
2023-05-23T03:55:26.965Z,18.3001
2023-05-23T03:56:29.952Z,17.1812
2023-05-23T03:57:32.975Z,12.8054
2023-05-23T03:58:35.801Z,10.2321
2023-05-23T03:59:38.735Z,10.5730
2023-05-23T04:00:41.740Z,10.5840
2023-05-23T04:01:44.632Z,10.0427
2023-05-23T04:02:47.673Z,9.6635
2023-05-23T04:03:50.666Z,9.4718
2023-05-23T04:04:53.467Z,8.8531
2023-05-23T04:05:56.457Z,9.3605
2023-05-23T04:06:59.362Z,9.2444
2023-05-23T04:08:02.414Z,9.7075
2023-05-23T04:09:05.261Z,9.6677
2023-05-23T04:10:08.202Z,10.1670
2023-05-23T04:11:11.261Z,13.7440
2023-05-23T04:12:14.093Z,9.8727
2023-05-23T04:13:17.135Z,12.1459
2023-05-23T04:14:19.990Z,10.1061
2023-05-23T04:15:22.928Z,9.3873
2023-05-23T04:16:25.920Z,10.2602
2023-05-23T04:17:28.882Z,10.4029
2023-05-23T04:18:31.797Z,10.1539
2023-05-23T04:19:34.762Z,9.7595
2023-05-23T04:20:37.858Z,11.4100
2023-05-23T04:21:40.640Z,10.8252
2023-05-23T04:22:43.620Z,10.8081
2023-05-23T04:23:46.540Z,10.4062
2023-05-23T04:24:49.496Z,10.8597
2023-05-23T04:25:52.439Z,10.6113
2023-05-23T04:26:55.501Z,10.9278
2023-05-23T04:27:58.339Z,10.2821
2023-05-23T04:29:01.395Z,10.5060
2023-05-23T04:30:04.372Z,10.6290
2023-05-23T04:31:07.246Z,12.1939
2023-05-23T04:32:10.176Z,10.1936
2023-05-23T04:33:13.118Z,9.9881
2023-05-23T04:34:16.095Z,9.9500
2023-05-23T04:35:19.019Z,10.2047
2023-05-23T04:36:21.993Z,10.2842
2023-05-23T04:37:24.923Z,9.9603
2023-05-23T04:38:27.883Z,9.6700
2023-05-23T04:39:30.904Z,9.4701
2023-05-23T04:40:33.806Z,9.0362
2023-05-23T04:41:36.835Z,9.7202
2023-05-23T04:42:39.726Z,9.8535
2023-05-23T04:43:42.753Z,9.7711
2023-05-23T04:44:45.734Z,9.8280
2023-05-23T04:45:48.605Z,9.8326
2023-05-23T04:46:51.624Z,9.6477
2023-05-23T04:47:54.604Z,8.9997
2023-05-23T04:48:57.443Z,9.0572
2023-05-23T04:50:00.375Z,9.5856
2023-05-23T04:51:03.350Z,9.0821
2023-05-23T04:52:06.444Z,9.3295
2023-05-23T04:53:09.255Z,9.2086
2023-05-23T04:54:12.204Z,9.9873
2023-05-23T04:55:15.158Z,9.9099
2023-05-23T04:56:20.382Z,10.0219
2023-05-23T04:57:21.169Z,9.5894
2023-05-23T04:58:24.025Z,9.2053
2023-05-23T04:59:27.047Z,9.8603
2023-05-23T05:00:30.031Z,9.8787
2023-05-23T05:01:32.930Z,9.8962
2023-05-23T05:02:35.857Z,9.8352
2023-05-23T05:03:38.833Z,9.9555
2023-05-23T05:04:41.742Z,9.8894
2023-05-23T05:05:44.695Z,10.2058
2023-05-23T05:06:47.646Z,10.1751
2023-05-23T05:07:50.616Z,10.4913
2023-05-23T05:08:53.545Z,10.0443
2023-05-23T05:09:57.622Z,10.3929
2023-05-23T05:10:59.466Z,10.5162
2023-05-23T05:12:02.540Z,9.9288
2023-05-23T05:13:05.387Z,10.0988
2023-05-23T05:14:08.359Z,10.7843
2023-05-23T05:15:11.297Z,9.7512
2023-05-23T05:16:14.371Z,9.8919
2023-05-23T05:17:17.203Z,10.2654
2023-05-23T05:18:20.168Z,10.2544
2023-05-23T05:19:23.122Z,10.6773
2023-05-23T05:20:26.067Z,10.2586
2023-05-23T05:21:29.013Z,10.0946
2023-05-23T05:22:32.003Z,10.3874
2023-05-23T05:23:34.950Z,10.3060
2023-05-23T05:24:37.890Z,10.7560
2023-05-23T05:25:40.825Z,10.1092
2023-05-23T05:26:43.805Z,9.9624
2023-05-23T05:27:46.757Z,10.1015
2023-05-23T05:28:49.737Z,10.0995
2023-05-23T05:29:52.669Z,10.5949
2023-05-23T05:30:55.761Z,9.8733
2023-05-23T05:31:58.671Z,10.0729
2023-05-23T05:33:01.562Z,10.6614
2023-05-23T05:34:04.584Z,10.2426
2023-05-23T05:35:07.465Z,10.2099
2023-05-23T05:36:10.419Z,10.4028
2023-05-23T05:37:13.365Z,10.5462
2023-05-23T05:38:16.317Z,10.0691
2023-05-23T05:39:19.292Z,10.7792
2023-05-23T05:40:22.277Z,10.6699
2023-05-23T05:41:25.216Z,10.4832
2023-05-23T05:42:28.145Z,10.3777
2023-05-23T05:43:31.092Z,10.3440
2023-05-23T05:44:34.066Z,9.8617
2023-05-23T05:45:37.017Z,10.4600
2023-05-23T05:46:40.007Z,10.5623
2023-05-23T05:47:43.078Z,10.4155
2023-05-23T05:48:45.866Z,10.8598
2023-05-23T05:49:49.038Z,10.6802
2023-05-23T05:50:51.781Z,10.8483
2023-05-23T05:51:54.761Z,10.6849
2023-05-23T05:52:57.725Z,10.8261
2023-05-23T05:54:00.639Z,11.1798
2023-05-23T05:55:03.602Z,11.3584
2023-05-23T05:56:06.625Z,10.6023
2023-05-23T05:57:09.489Z,10.7033
2023-05-23T05:58:12.467Z,11.1593
2023-05-23T05:59:15.408Z,11.4423
2023-05-23T06:00:18.366Z,10.4683
2023-05-23T06:01:21.316Z,11.3552
2023-05-23T06:02:24.469Z,11.1837
2023-05-23T06:03:27.416Z,11.5598
2023-05-23T06:04:30.410Z,11.4555
2023-05-23T06:05:33.132Z,11.3628
2023-05-23T06:06:36.118Z,11.3333
2023-05-23T06:07:39.041Z,10.0278
2023-05-23T06:08:42.042Z,10.2489
2023-05-23T06:09:44.953Z,10.8573
2023-05-23T06:10:47.911Z,10.8753
2023-05-23T06:11:50.882Z,10.9500
2023-05-23T06:12:53.830Z,11.0482
2023-05-23T06:13:56.789Z,11.0891
2023-05-23T06:14:59.855Z,11.0168
2023-05-23T06:16:02.745Z,10.5264
2023-05-23T06:17:05.631Z,11.2036
2023-05-23T06:18:08.616Z,11.4662
2023-05-23T06:19:11.689Z,11.7096
2023-05-23T06:20:14.483Z,11.5011
2023-05-23T06:21:17.436Z,10.8524
2023-05-23T06:22:20.409Z,11.0465
2023-05-23T06:23:23.331Z,10.9431
2023-05-23T06:24:26.284Z,11.0112
2023-05-23T06:25:29.254Z,11.0424
2023-05-23T06:26:32.213Z,11.4376
2023-05-23T06:27:35.213Z,11.7221
2023-05-23T06:28:38.120Z,11.4799
2023-05-23T06:29:41.056Z,12.0767
2023-05-23T06:30:44.149Z,11.8379
2023-05-23T06:31:47.038Z,11.9359
2023-05-23T06:32:49.988Z,11.2216
2023-05-23T06:33:52.909Z,11.8842
2023-05-23T06:34:55.916Z,11.9482
2023-05-23T06:35:58.772Z,11.1800
2023-05-23T06:37:01.728Z,11.7363
2023-05-23T06:38:04.692Z,11.8104
2023-05-23T06:39:07.639Z,11.5923
2023-05-23T06:40:10.650Z,11.3934
2023-05-23T06:41:13.533Z,10.9910
2023-05-23T06:42:16.497Z,11.4078
2023-05-23T06:43:19.443Z,10.8878
2023-05-23T06:44:22.414Z,11.4441
2023-05-23T06:45:25.356Z,11.6450
2023-05-23T06:46:28.399Z,11.4818
2023-05-23T06:47:31.282Z,12.9750
2023-05-23T06:48:34.207Z,13.6390
2023-05-23T06:49:37.177Z,14.2221
2023-05-23T06:50:40.401Z,15.0065
2023-05-23T06:51:43.311Z,14.9598
2023-05-23T06:52:46.062Z,14.8526
2023-05-23T06:53:48.996Z,15.3258
2023-05-23T06:54:51.941Z,15.1624
2023-05-23T06:55:54.922Z,15.2190
2023-05-23T06:56:57.894Z,14.9082
2023-05-23T06:58:00.860Z,15.1310
2023-05-23T06:59:03.768Z,15.3543
2023-05-23T07:00:06.706Z,14.7874
2023-05-23T07:01:09.760Z,14.7425
2023-05-23T07:02:12.699Z,15.0309
2023-05-23T07:03:15.652Z,15.3492
2023-05-23T07:04:18.598Z,15.4824
2023-05-23T07:05:21.711Z,15.4129
2023-05-23T07:06:24.612Z,14.3022
2023-05-23T07:07:27.485Z,14.7256
2023-05-23T07:08:30.414Z,14.7087
2023-05-23T07:09:33.398Z,15.1137
2023-05-23T07:10:36.333Z,14.6261
2023-05-23T07:11:39.335Z,14.8160
2023-05-23T07:12:42.224Z,14.4203
2023-05-23T07:13:45.189Z,14.5451
2023-05-23T07:14:48.134Z,14.8882
2023-05-23T07:15:51.206Z,14.2978
2023-05-23T07:16:54.099Z,15.8010
2023-05-23T07:17:57.041Z,16.4384
2023-05-23T07:19:00.005Z,16.6664
2023-05-23T07:20:02.910Z,16.0294
2023-05-23T07:21:05.869Z,15.6375
2023-05-23T07:22:08.933Z,15.9499
2023-05-23T07:23:11.831Z,16.2160
2023-05-23T07:24:14.740Z,15.5076
2023-05-23T07:25:17.679Z,15.7317
2023-05-23T07:26:20.640Z,15.9878
2023-05-23T07:27:23.569Z,16.5433
2023-05-23T07:28:26.531Z,16.9252
2023-05-23T07:29:29.525Z,17.3756
2023-05-23T07:30:33.472Z,16.9742
2023-05-23T07:31:35.429Z,17.0600
2023-05-23T07:32:38.452Z,16.5537
2023-05-23T07:33:41.319Z,17.1358
2023-05-23T07:34:44.263Z,17.2077
2023-05-23T07:35:47.259Z,16.8433
2023-05-23T07:36:50.175Z,17.0473
2023-05-23T07:37:53.161Z,16.9236
2023-05-23T07:38:56.100Z,16.0942
2023-05-23T07:39:59.024Z,16.8653
2023-05-23T07:41:10.686Z,16.7034
2023-05-23T07:42:04.927Z,16.3762
2023-05-23T07:43:07.895Z,17.1920
2023-05-23T07:44:10.835Z,17.2482
2023-05-23T07:45:13.795Z,17.4116
2023-05-23T07:46:16.848Z,16.5379
2023-05-23T07:47:19.696Z,16.7806
2023-05-23T07:48:22.726Z,16.8542
2023-05-23T07:49:25.614Z,17.2973
2023-05-23T07:50:28.589Z,16.7059
2023-05-23T07:51:31.535Z,17.1334
2023-05-23T07:52:34.482Z,16.4330
2023-05-23T07:53:37.443Z,16.8468
2023-05-23T07:54:40.386Z,16.9402
2023-05-23T07:55:43.390Z,15.6847
2023-05-23T07:56:46.316Z,18.1487
2023-05-23T07:57:49.304Z,17.5951
2023-05-23T07:58:52.200Z,17.4652
2023-05-23T07:59:55.162Z,17.7345
2023-05-23T08:00:58.128Z,18.0873
2023-05-23T08:02:01.109Z,17.9838
2023-05-23T08:03:04.042Z,17.6065
2023-05-23T08:04:07.006Z,17.7934
2023-05-23T08:05:09.931Z,17.8976
2023-05-23T08:06:12.884Z,18.4925
2023-05-23T08:07:17.944Z,18.7950
2023-05-23T08:08:18.807Z,18.1998
2023-05-23T08:09:21.768Z,17.9318
2023-05-23T08:10:24.706Z,17.9834
2023-05-23T08:11:27.661Z,17.3819
2023-05-23T08:12:30.591Z,17.4568
2023-05-23T08:13:33.561Z,18.2471
2023-05-23T08:14:49.656Z,18.2276
2023-05-23T08:15:39.557Z,17.2261
2023-05-23T08:16:42.463Z,18.5757
2023-05-23T08:17:45.464Z,18.0676
2023-05-23T08:18:48.368Z,17.6845
2023-05-23T08:19:51.322Z,18.4238
2023-05-23T08:20:54.267Z,18.2135
2023-05-23T08:21:57.207Z,18.3945
2023-05-23T08:23:00.211Z,18.1519
2023-05-23T08:24:03.159Z,17.6420
2023-05-23T08:25:06.091Z,18.3265
2023-05-23T08:26:09.027Z,18.4041
2023-05-23T08:27:11.978Z,18.8709
2023-05-23T08:28:14.990Z,18.2824
2023-05-23T08:29:17.945Z,18.5911
2023-05-23T08:30:20.887Z,18.1783
2023-05-23T08:31:23.826Z,18.3211
2023-05-23T08:32:26.779Z,18.7114
2023-05-23T08:33:29.696Z,18.7687
2023-05-23T08:34:32.679Z,18.1316
2023-05-23T08:35:35.604Z,18.3516
2023-05-23T08:36:38.561Z,17.5646
2023-05-23T08:37:41.566Z,18.7181
2023-05-23T08:38:44.472Z,18.3001
2023-05-23T08:39:47.464Z,18.4077
2023-05-23T08:40:50.388Z,17.9339
2023-05-23T08:41:53.314Z,17.9053
2023-05-23T08:42:56.393Z,18.5385
2023-05-23T08:43:59.237Z,18.2564
2023-05-23T08:45:02.246Z,18.0083
2023-05-23T08:46:05.154Z,18.2574
2023-05-23T08:47:08.144Z,18.1923
2023-05-23T08:48:11.035Z,18.0772
2023-05-23T08:49:13.983Z,18.4577
2023-05-23T08:50:18.700Z,18.5657
2023-05-23T08:51:19.938Z,17.7342
2023-05-23T08:52:22.824Z,17.5700
2023-05-23T08:53:25.778Z,18.0378
2023-05-23T08:54:28.736Z,18.3648
2023-05-23T08:55:31.677Z,18.5408
2023-05-23T08:56:34.740Z,17.9394
2023-05-23T08:57:37.560Z,17.8724
2023-05-23T08:58:40.513Z,18.6451
2023-05-23T08:59:43.489Z,18.0427
2023-05-23T09:00:46.413Z,18.5973
2023-05-23T09:01:49.403Z,18.3906
2023-05-23T09:02:52.317Z,17.8569
2023-05-23T09:03:55.242Z,18.5586
2023-05-23T09:04:58.188Z,17.9696
2023-05-23T09:06:01.212Z,18.4096
2023-05-23T09:07:04.140Z,17.7257
2023-05-23T09:08:07.055Z,18.2759
2023-05-23T09:09:09.977Z,19.0463
2023-05-23T09:10:12.954Z,18.3072
2023-05-23T09:11:15.884Z,18.0914
2023-05-23T09:12:18.849Z,18.5763
2023-05-23T09:13:21.804Z,18.6786
2023-05-23T09:14:24.743Z,18.4719
2023-05-23T09:15:27.746Z,17.8542
2023-05-23T09:16:30.699Z,18.5027
2023-05-23T09:17:33.763Z,17.9854
2023-05-23T09:18:36.570Z,17.9625
2023-05-23T09:19:39.677Z,18.3048
2023-05-23T09:20:42.620Z,18.8093
2023-05-23T09:21:45.436Z,18.6176
2023-05-23T09:22:48.386Z,18.6093
2023-05-23T09:23:51.362Z,19.1164
2023-05-23T09:24:54.369Z,19.3892
2023-05-23T09:25:57.256Z,19.1478
2023-05-23T09:27:00.205Z,18.9488
2023-05-23T09:28:03.173Z,20.7387
2023-05-23T09:29:06.139Z,20.2271
2023-05-23T09:30:09.103Z,19.9227
2023-05-23T09:31:12.053Z,20.7258
2023-05-23T09:32:14.971Z,21.3269
2023-05-23T09:33:17.942Z,24.2440
2023-05-23T09:34:20.902Z,22.9608
2023-05-23T09:35:23.887Z,23.7875
2023-05-23T09:36:26.793Z,23.8883
2023-05-23T09:37:29.815Z,23.4280
2023-05-23T09:38:32.672Z,22.7886
2023-05-23T09:39:35.651Z,23.6473
2023-05-23T09:40:38.681Z,23.2783
2023-05-23T09:41:41.555Z,22.1275
2023-05-23T09:42:44.505Z,22.8327
2023-05-23T09:43:47.482Z,22.4666
2023-05-23T09:44:50.521Z,22.1736
2023-05-23T09:45:53.409Z,22.3248
2023-05-23T09:46:56.459Z,23.3069
2023-05-23T09:47:59.296Z,23.5206
2023-05-23T09:49:02.228Z,22.0780
2023-05-23T09:50:05.177Z,22.5422
2023-05-23T09:51:08.129Z,23.1789
2023-05-23T09:52:11.079Z,22.9663
2023-05-23T09:53:14.014Z,23.4186
2023-05-23T09:54:16.975Z,23.2822
2023-05-23T09:55:19.903Z,21.3925
2023-05-23T09:56:22.875Z,22.1248
2023-05-23T09:57:25.819Z,21.7883
2023-05-23T09:58:28.756Z,22.1595
2023-05-23T09:59:31.799Z,23.2922
2023-05-23T10:00:34.638Z,23.6794
2023-05-23T10:01:37.762Z,22.4200
2023-05-23T10:02:40.670Z,22.8537
2023-05-23T10:03:43.502Z,23.9998
2023-05-23T10:04:46.565Z,22.9307
2023-05-23T10:05:49.456Z,23.5933
2023-05-23T10:06:52.374Z,23.8186
2023-05-23T10:07:55.294Z,23.3472
2023-05-23T10:08:58.235Z,23.7143
2023-05-23T10:10:01.220Z,23.0202
2023-05-23T10:11:04.164Z,23.1373
2023-05-23T10:12:07.117Z,23.8484
2023-05-23T10:13:10.050Z,22.9994
2023-05-23T10:14:12.982Z,22.3179
2023-05-23T10:15:15.951Z,22.7807
2023-05-23T10:16:18.926Z,22.9019
2023-05-23T10:17:21.942Z,23.2632
2023-05-23T10:18:24.765Z,23.5997
2023-05-23T10:19:27.763Z,23.3905
2023-05-23T10:20:30.711Z,23.6293
2023-05-23T10:21:33.667Z,21.7415
2023-05-23T10:22:36.563Z,22.6422
2023-05-23T10:23:39.512Z,22.8096
2023-05-23T10:24:42.495Z,22.6808
2023-05-23T10:25:45.420Z,23.8157
2023-05-23T10:26:48.343Z,23.8592
2023-05-23T10:27:53.711Z,24.5120
2023-05-23T10:28:54.250Z,24.4273
2023-05-23T10:29:57.210Z,23.6817
2023-05-23T10:31:00.231Z,23.6976
2023-05-23T10:32:03.061Z,23.6789
2023-05-23T10:33:06.111Z,23.8114
2023-05-23T10:34:08.980Z,25.0310
2023-05-23T10:35:11.930Z,23.8422
2023-05-23T10:36:14.984Z,22.9632
2023-05-23T10:37:17.804Z,23.6679
2023-05-23T10:38:20.810Z,23.9951
2023-05-23T10:39:23.692Z,22.8392
2023-05-23T10:40:26.658Z,22.5366
2023-05-23T10:41:29.634Z,22.2203
2023-05-23T10:42:32.543Z,23.0618
2023-05-23T10:43:35.485Z,22.4688
2023-05-23T10:44:38.439Z,22.2023
2023-05-23T10:45:41.463Z,22.5777
2023-05-23T10:46:44.372Z,20.8608
2023-05-23T10:47:47.353Z,21.2677
2023-05-23T10:48:50.237Z,20.9738
2023-05-23T10:49:53.163Z,21.1409
2023-05-23T10:50:56.132Z,20.9348
2023-05-23T10:51:59.070Z,21.4148
2023-05-23T10:53:02.060Z,20.0136
2023-05-23T10:54:04.984Z,20.6183
2023-05-23T10:55:07.933Z,21.2342
2023-05-23T10:56:10.905Z,19.4205
2023-05-23T10:57:13.870Z,20.1564
2023-05-23T10:58:16.810Z,19.4278
2023-05-23T10:59:19.757Z,19.9726
2023-05-23T11:00:22.710Z,20.1361
2023-05-23T11:01:25.717Z,20.6727
2023-05-23T11:02:28.683Z,19.4152
2023-05-23T11:03:31.691Z,19.5406
2023-05-23T11:04:34.528Z,19.6668
2023-05-23T11:05:37.473Z,20.2829
2023-05-23T11:06:40.525Z,20.7174
2023-05-23T11:07:43.385Z,20.0635
2023-05-23T11:08:48.301Z,20.3395
2023-05-23T11:09:49.345Z,19.5417
2023-05-23T11:10:52.315Z,19.1735
2023-05-23T11:11:55.252Z,18.3218
2023-05-23T11:12:58.183Z,18.6523
2023-05-23T11:14:01.114Z,19.8854
2023-05-23T11:15:04.069Z,20.3722
2023-05-23T11:16:07.069Z,19.8892
2023-05-23T11:17:09.973Z,19.1857
2023-05-23T11:18:12.910Z,18.7240
2023-05-23T11:19:15.882Z,19.5528
2023-05-23T11:20:18.830Z,20.6644
2023-05-23T11:21:21.752Z,20.1623
2023-05-23T11:22:24.717Z,19.3278
2023-05-23T11:23:27.658Z,19.1663
2023-05-23T11:24:30.623Z,19.7426
2023-05-23T11:25:33.562Z,19.3519
2023-05-23T11:26:36.504Z,19.5068
2023-05-23T11:27:39.471Z,20.0173
2023-05-23T11:28:42.427Z,19.3928
2023-05-23T11:29:45.349Z,19.6522
2023-05-23T11:30:48.302Z,20.0496
2023-05-23T11:31:51.422Z,20.5589
2023-05-23T11:32:54.228Z,19.5777
2023-05-23T11:33:57.161Z,20.0923
2023-05-23T11:35:00.121Z,20.1400
2023-05-23T11:36:03.061Z,21.0354
2023-05-23T11:37:06.015Z,19.6663
2023-05-23T11:38:08.981Z,20.0207
2023-05-23T11:39:11.900Z,19.8834
2023-05-23T11:40:14.878Z,20.4710
2023-05-23T11:41:17.843Z,20.7923
2023-05-23T11:42:20.768Z,21.6410
2023-05-23T11:43:23.726Z,20.6010
2023-05-23T11:44:26.844Z,18.5184
2023-05-23T11:45:29.646Z,17.9561
2023-05-23T11:46:32.634Z,18.5392
2023-05-23T11:47:35.646Z,18.1898
2023-05-23T11:48:38.505Z,16.5656
2023-05-23T11:49:41.501Z,17.4081
2023-05-23T11:50:44.432Z,16.3713
2023-05-23T11:51:47.389Z,15.4799
2023-05-23T11:52:50.359Z,15.6762
2023-05-23T11:53:53.284Z,14.9751
2023-05-23T11:54:58.937Z,16.5979
2023-05-23T11:55:59.213Z,16.9822
2023-05-23T11:57:02.156Z,15.3689
2023-05-23T11:58:05.139Z,15.2149
2023-05-23T11:59:08.076Z,14.9641
2023-05-23T12:00:11.071Z,15.5828
2023-05-23T12:01:13.996Z,16.6097
2023-05-23T12:02:16.980Z,17.0708
2023-05-23T12:03:20.188Z,17.2789
2023-05-23T12:04:23.036Z,18.0027
2023-05-23T12:05:25.808Z,17.1505
2023-05-23T12:06:28.782Z,16.9915
2023-05-23T12:07:31.778Z,15.7079
2023-05-23T12:08:34.827Z,15.2184
2023-05-23T12:09:37.699Z,15.8242
2023-05-23T12:10:40.798Z,14.9631
2023-05-23T12:11:43.577Z,15.5023
2023-05-23T12:12:46.534Z,15.2141
2023-05-23T12:13:49.468Z,15.4136
2023-05-23T12:14:52.486Z,16.2277
2023-05-23T12:15:55.532Z,15.3304
2023-05-23T12:16:58.356Z,15.5343
2023-05-23T12:18:01.447Z,14.7713
2023-05-23T12:19:04.279Z,15.0692
2023-05-23T12:20:07.224Z,14.8467
2023-05-23T12:21:10.126Z,14.7818
2023-05-23T12:22:13.148Z,16.2393
2023-05-23T12:23:16.023Z,16.7075
2023-05-23T12:24:18.981Z,17.0430
2023-05-23T12:25:21.980Z,17.4808
2023-05-23T12:26:24.909Z,16.8570
2023-05-23T12:27:27.868Z,16.3009
2023-05-23T12:28:30.812Z,15.9320
2023-05-23T12:29:34.993Z,16.3508
2023-05-23T12:30:36.714Z,15.2330
2023-05-23T12:31:39.739Z,15.8213
2023-05-23T12:32:42.708Z,14.8031
2023-05-23T12:33:45.588Z,15.3109
2023-05-23T12:34:48.552Z,15.4489
2023-05-23T12:35:51.488Z,16.0625
2023-05-23T12:37:57.414Z,15.1176
2023-05-23T12:39:00.341Z,14.8321
2023-05-23T12:40:03.293Z,14.1983
2023-05-23T12:41:06.255Z,15.4231
2023-05-23T12:42:09.181Z,16.8926
2023-05-23T12:43:12.172Z,18.0450
2023-05-23T12:44:15.118Z,17.4659
2023-05-23T12:45:18.097Z,17.9866
2023-05-23T12:46:21.012Z,18.0593
2023-05-23T12:47:24.124Z,18.8248
2023-05-23T12:48:26.926Z,19.4784
2023-05-23T12:49:29.845Z,19.7188